sensor_id;sensor_type;location;lat;lon;timestamp;P1;durP1;ratioP1;P2;durP2;ratioP2
64712;SDS011;51140;45.340;5.980;2024-01-30T00:01:40;10.10;;;5.55;;
64712;SDS011;51140;45.340;5.980;2024-01-30T00:04:06;8.23;;;4.50;;
64712;SDS011;51140;45.340;5.980;2024-01-30T00:06:31;10.57;;;4.90;;
64712;SDS011;51140;45.340;5.980;2024-01-30T00:08:56;9.98;;;4.85;;
64712;SDS011;51140;45.340;5.980;2024-01-30T00:11:22;12.43;;;5.28;;
64712;SDS011;51140;45.340;5.980;2024-01-30T00:13:47;9.77;;;5.03;;
64712;SDS011;51140;45.340;5.980;2024-01-30T00:16:22;9.32;;;4.85;;
64712;SDS011;51140;45.340;5.980;2024-01-30T00:18:51;10.85;;;5.13;;
64712;SDS011;51140;45.340;5.980;2024-01-30T00:21:18;8.35;;;4.57;;
64712;SDS011;51140;45.340;5.980;2024-01-30T00:23:43;12.00;;;5.40;;
64712;SDS011;51140;45.340;5.980;2024-01-30T00:26:09;11.07;;;5.32;;
64712;SDS011;51140;45.340;5.980;2024-01-30T00:28:34;9.52;;;5.72;;
64712;SDS011;51140;45.340;5.980;2024-01-30T00:30:59;11.65;;;5.95;;
64712;SDS011;51140;45.340;5.980;2024-01-30T00:33:25;10.35;;;5.22;;
64712;SDS011;51140;45.340;5.980;2024-01-30T00:35:50;9.02;;;5.43;;
64712;SDS011;51140;45.340;5.980;2024-01-30T00:38:16;11.65;;;5.45;;
64712;SDS011;51140;45.340;5.980;2024-01-30T00:40:41;11.15;;;5.75;;
64712;SDS011;51140;45.340;5.980;2024-01-30T00:43:07;11.32;;;5.63;;
64712;SDS011;51140;45.340;5.980;2024-01-30T00:45:32;13.70;;;6.20;;
64712;SDS011;51140;45.340;5.980;2024-01-30T00:47:57;12.23;;;5.40;;
64712;SDS011;51140;45.340;5.980;2024-01-30T00:50:23;10.50;;;6.05;;
64712;SDS011;51140;45.340;5.980;2024-01-30T00:52:48;12.13;;;6.15;;
64712;SDS011;51140;45.340;5.980;2024-01-30T00:55:13;12.63;;;6.25;;
64712;SDS011;51140;45.340;5.980;2024-01-30T00:57:39;12.23;;;6.70;;
64712;SDS011;51140;45.340;5.980;2024-01-30T01:00:05;11.38;;;5.32;;
64712;SDS011;51140;45.340;5.980;2024-01-30T01:02:33;9.32;;;5.45;;
64712;SDS011;51140;45.340;5.980;2024-01-30T01:04:59;10.23;;;5.88;;
64712;SDS011;51140;45.340;5.980;2024-01-30T01:07:24;11.35;;;6.57;;
64712;SDS011;51140;45.340;5.980;2024-01-30T01:09:50;10.82;;;5.45;;
64712;SDS011;51140;45.340;5.980;2024-01-30T01:12:15;9.68;;;4.57;;
64712;SDS011;51140;45.340;5.980;2024-01-30T01:14:40;8.65;;;4.72;;
64712;SDS011;51140;45.340;5.980;2024-01-30T01:17:06;8.57;;;4.68;;
64712;SDS011;51140;45.340;5.980;2024-01-30T01:19:32;9.65;;;4.80;;
64712;SDS011;51140;45.340;5.980;2024-01-30T01:21:57;9.60;;;4.85;;
64712;SDS011;51140;45.340;5.980;2024-01-30T01:24:23;11.23;;;5.25;;
64712;SDS011;51140;45.340;5.980;2024-01-30T01:26:48;13.15;;;6.53;;
64712;SDS011;51140;45.340;5.980;2024-01-30T01:29:13;10.93;;;5.88;;
64712;SDS011;51140;45.340;5.980;2024-01-30T01:31:40;13.48;;;5.95;;
64712;SDS011;51140;45.340;5.980;2024-01-30T01:34:11;11.23;;;5.53;;
64712;SDS011;51140;45.340;5.980;2024-01-30T01:36:38;14.57;;;5.57;;
64712;SDS011;51140;45.340;5.980;2024-01-30T01:39:03;11.27;;;5.53;;
64712;SDS011;51140;45.340;5.980;2024-01-30T01:41:30;11.35;;;5.75;;
64712;SDS011;51140;45.340;5.980;2024-01-30T01:43:56;11.05;;;6.00;;
64712;SDS011;51140;45.340;5.980;2024-01-30T01:46:22;11.73;;;6.18;;
64712;SDS011;51140;45.340;5.980;2024-01-30T01:48:47;11.10;;;6.18;;
64712;SDS011;51140;45.340;5.980;2024-01-30T01:51:14;10.70;;;5.95;;
64712;SDS011;51140;45.340;5.980;2024-01-30T01:53:40;10.02;;;5.78;;
64712;SDS011;51140;45.340;5.980;2024-01-30T01:56:06;13.25;;;6.55;;
64712;SDS011;51140;45.340;5.980;2024-01-30T01:58:32;11.45;;;5.85;;
64712;SDS011;51140;45.340;5.980;2024-01-30T02:00:57;10.25;;;6.20;;
64712;SDS011;51140;45.340;5.980;2024-01-30T02:03:24;13.98;;;6.10;;
64712;SDS011;51140;45.340;5.980;2024-01-30T02:05:50;8.70;;;4.97;;
64712;SDS011;51140;45.340;5.980;2024-01-30T02:08:16;13.93;;;7.82;;
64712;SDS011;51140;45.340;5.980;2024-01-30T02:10:41;14.32;;;7.75;;
64712;SDS011;51140;45.340;5.980;2024-01-30T02:13:07;19.08;;;10.05;;
64712;SDS011;51140;45.340;5.980;2024-01-30T02:15:33;17.73;;;9.77;;
64712;SDS011;51140;45.340;5.980;2024-01-30T02:17:58;14.82;;;8.68;;
64712;SDS011;51140;45.340;5.980;2024-01-30T02:20:24;15.77;;;8.60;;
64712;SDS011;51140;45.340;5.980;2024-01-30T02:22:50;13.82;;;8.18;;
64712;SDS011;51140;45.340;5.980;2024-01-30T02:25:19;13.05;;;7.07;;
64712;SDS011;51140;45.340;5.980;2024-01-30T02:27:44;16.67;;;8.82;;
64712;SDS011;51140;45.340;5.980;2024-01-30T02:30:10;14.38;;;8.30;;
64712;SDS011;51140;45.340;5.980;2024-01-30T02:32:36;14.73;;;7.68;;
64712;SDS011;51140;45.340;5.980;2024-01-30T02:35:01;17.40;;;9.40;;
64712;SDS011;51140;45.340;5.980;2024-01-30T02:37:27;13.40;;;7.85;;
64712;SDS011;51140;45.340;5.980;2024-01-30T02:39:52;15.63;;;7.70;;
64712;SDS011;51140;45.340;5.980;2024-01-30T02:42:18;14.95;;;8.00;;
64712;SDS011;51140;45.340;5.980;2024-01-30T02:44:43;15.98;;;9.02;;
64712;SDS011;51140;45.340;5.980;2024-01-30T02:47:09;12.00;;;5.78;;
64712;SDS011;51140;45.340;5.980;2024-01-30T02:49:34;12.27;;;6.65;;
64712;SDS011;51140;45.340;5.980;2024-01-30T02:51:59;11.70;;;6.47;;
64712;SDS011;51140;45.340;5.980;2024-01-30T02:54:25;12.68;;;6.65;;
64712;SDS011;51140;45.340;5.980;2024-01-30T02:56:50;13.13;;;6.82;;
64712;SDS011;51140;45.340;5.980;2024-01-30T02:59:16;12.57;;;6.63;;
64712;SDS011;51140;45.340;5.980;2024-01-30T03:01:44;13.02;;;6.85;;
64712;SDS011;51140;45.340;5.980;2024-01-30T03:04:10;12.90;;;5.95;;
64712;SDS011;51140;45.340;5.980;2024-01-30T03:06:36;10.68;;;5.55;;
64712;SDS011;51140;45.340;5.980;2024-01-30T03:09:01;12.02;;;6.32;;
64712;SDS011;51140;45.340;5.980;2024-01-30T03:11:27;16.05;;;9.98;;
64712;SDS011;51140;45.340;5.980;2024-01-30T03:13:52;15.95;;;9.75;;
64712;SDS011;51140;45.340;5.980;2024-01-30T03:16:18;16.27;;;10.27;;
64712;SDS011;51140;45.340;5.980;2024-01-30T03:18:43;17.35;;;9.07;;
64712;SDS011;51140;45.340;5.980;2024-01-30T03:21:09;13.30;;;7.00;;
64712;SDS011;51140;45.340;5.980;2024-01-30T03:23:34;14.18;;;7.70;;
64712;SDS011;51140;45.340;5.980;2024-01-30T03:25:59;12.13;;;6.18;;
64712;SDS011;51140;45.340;5.980;2024-01-30T03:28:25;14.52;;;8.07;;
64712;SDS011;51140;45.340;5.980;2024-01-30T03:30:50;18.70;;;11.60;;
64712;SDS011;51140;45.340;5.980;2024-01-30T03:33:15;18.17;;;10.05;;
64712;SDS011;51140;45.340;5.980;2024-01-30T03:35:41;18.00;;;9.05;;
64712;SDS011;51140;45.340;5.980;2024-01-30T03:38:06;14.75;;;8.48;;
64712;SDS011;51140;45.340;5.980;2024-01-30T03:40:31;14.55;;;8.65;;
64712;SDS011;51140;45.340;5.980;2024-01-30T03:42:57;14.75;;;8.15;;
64712;SDS011;51140;45.340;5.980;2024-01-30T03:45:22;12.15;;;6.38;;
64712;SDS011;51140;45.340;5.980;2024-01-30T03:47:48;13.82;;;8.02;;
64712;SDS011;51140;45.340;5.980;2024-01-30T03:50:13;21.35;;;12.90;;
64712;SDS011;51140;45.340;5.980;2024-01-30T03:52:39;23.20;;;12.20;;
64712;SDS011;51140;45.340;5.980;2024-01-30T03:55:04;19.67;;;11.68;;
64712;SDS011;51140;45.340;5.980;2024-01-30T03:57:30;15.50;;;9.70;;
64712;SDS011;51140;45.340;5.980;2024-01-30T03:59:55;14.77;;;7.93;;
64712;SDS011;51140;45.340;5.980;2024-01-30T04:02:20;11.45;;;6.40;;
64712;SDS011;51140;45.340;5.980;2024-01-30T04:04:46;12.90;;;7.65;;
64712;SDS011;51140;45.340;5.980;2024-01-30T04:07:11;13.35;;;6.65;;
64712;SDS011;51140;45.340;5.980;2024-01-30T04:09:38;11.65;;;6.40;;
64712;SDS011;51140;45.340;5.980;2024-01-30T04:12:03;10.57;;;5.18;;
64712;SDS011;51140;45.340;5.980;2024-01-30T04:14:29;13.27;;;6.82;;
64712;SDS011;51140;45.340;5.980;2024-01-30T04:16:54;12.18;;;6.47;;
64712;SDS011;51140;45.340;5.980;2024-01-30T04:19:20;13.07;;;6.90;;
64712;SDS011;51140;45.340;5.980;2024-01-30T04:21:45;11.85;;;6.40;;
64712;SDS011;51140;45.340;5.980;2024-01-30T04:24:10;13.85;;;8.32;;
64712;SDS011;51140;45.340;5.980;2024-01-30T04:26:36;24.33;;;14.15;;
64712;SDS011;51140;45.340;5.980;2024-01-30T04:29:01;24.10;;;15.23;;
64712;SDS011;51140;45.340;5.980;2024-01-30T04:31:27;20.88;;;13.38;;
64712;SDS011;51140;45.340;5.980;2024-01-30T04:33:53;19.33;;;11.65;;
64712;SDS011;51140;45.340;5.980;2024-01-30T04:36:18;22.25;;;13.18;;
64712;SDS011;51140;45.340;5.980;2024-01-30T04:38:43;25.33;;;15.10;;
64712;SDS011;51140;45.340;5.980;2024-01-30T04:41:09;17.83;;;11.40;;
64712;SDS011;51140;45.340;5.980;2024-01-30T04:43:34;15.90;;;9.00;;
64712;SDS011;51140;45.340;5.980;2024-01-30T04:46:00;14.70;;;7.75;;
64712;SDS011;51140;45.340;5.980;2024-01-30T04:48:26;14.85;;;7.40;;
64712;SDS011;51140;45.340;5.980;2024-01-30T04:50:52;10.93;;;7.05;;
64712;SDS011;51140;45.340;5.980;2024-01-30T04:53:17;14.95;;;7.50;;
64712;SDS011;51140;45.340;5.980;2024-01-30T04:55:42;13.90;;;6.95;;
64712;SDS011;51140;45.340;5.980;2024-01-30T04:58:08;12.43;;;6.40;;
64712;SDS011;51140;45.340;5.980;2024-01-30T05:00:33;10.55;;;5.82;;
64712;SDS011;51140;45.340;5.980;2024-01-30T05:02:58;12.32;;;5.90;;
64712;SDS011;51140;45.340;5.980;2024-01-30T05:05:24;11.15;;;5.53;;
64712;SDS011;51140;45.340;5.980;2024-01-30T05:07:49;18.55;;;7.88;;
64712;SDS011;51140;45.340;5.980;2024-01-30T05:10:15;14.45;;;8.27;;
64712;SDS011;51140;45.340;5.980;2024-01-30T05:12:40;14.85;;;7.95;;
64712;SDS011;51140;45.340;5.980;2024-01-30T05:15:06;11.18;;;6.65;;
64712;SDS011;51140;45.340;5.980;2024-01-30T05:17:31;12.30;;;5.90;;
64712;SDS011;51140;45.340;5.980;2024-01-30T05:19:57;12.85;;;6.55;;
64712;SDS011;51140;45.340;5.980;2024-01-30T05:22:22;13.18;;;6.90;;
64712;SDS011;51140;45.340;5.980;2024-01-30T05:24:47;9.73;;;5.80;;
64712;SDS011;51140;45.340;5.980;2024-01-30T05:27:13;9.60;;;5.53;;
64712;SDS011;51140;45.340;5.980;2024-01-30T05:29:41;11.25;;;6.40;;
64712;SDS011;51140;45.340;5.980;2024-01-30T05:32:06;11.27;;;5.78;;
64712;SDS011;51140;45.340;5.980;2024-01-30T05:34:32;12.05;;;6.18;;
64712;SDS011;51140;45.340;5.980;2024-01-30T05:36:57;11.50;;;5.97;;
64712;SDS011;51140;45.340;5.980;2024-01-30T05:39:23;13.15;;;6.03;;
64712;SDS011;51140;45.340;5.980;2024-01-30T05:41:48;11.48;;;6.05;;
64712;SDS011;51140;45.340;5.980;2024-01-30T05:44:13;11.73;;;6.28;;
64712;SDS011;51140;45.340;5.980;2024-01-30T05:46:39;10.95;;;5.90;;
64712;SDS011;51140;45.340;5.980;2024-01-30T05:49:04;17.55;;;9.05;;
64712;SDS011;51140;45.340;5.980;2024-01-30T05:51:29;11.32;;;6.97;;
64712;SDS011;51140;45.340;5.980;2024-01-30T05:53:55;12.82;;;7.53;;
64712;SDS011;51140;45.340;5.980;2024-01-30T05:56:20;11.60;;;6.28;;
64712;SDS011;51140;45.340;5.980;2024-01-30T05:58:46;10.77;;;6.05;;
64712;SDS011;51140;45.340;5.980;2024-01-30T06:01:11;11.82;;;5.60;;
64712;SDS011;51140;45.340;5.980;2024-01-30T06:03:36;10.25;;;5.30;;
64712;SDS011;51140;45.340;5.980;2024-01-30T06:06:02;11.68;;;5.60;;
64712;SDS011;51140;45.340;5.980;2024-01-30T06:08:27;9.73;;;5.53;;
64712;SDS011;51140;45.340;5.980;2024-01-30T06:10:53;10.93;;;5.15;;
64712;SDS011;51140;45.340;5.980;2024-01-30T06:13:19;11.27;;;5.53;;
64712;SDS011;51140;45.340;5.980;2024-01-30T06:15:45;11.75;;;6.80;;
64712;SDS011;51140;45.340;5.980;2024-01-30T06:18:10;13.30;;;6.22;;
64712;SDS011;51140;45.340;5.980;2024-01-30T06:20:36;10.73;;;5.57;;
64712;SDS011;51140;45.340;5.980;2024-01-30T06:23:01;11.73;;;5.88;;
64712;SDS011;51140;45.340;5.980;2024-01-30T06:25:27;11.38;;;5.28;;
64712;SDS011;51140;45.340;5.980;2024-01-30T06:27:52;11.77;;;6.40;;
64712;SDS011;51140;45.340;5.980;2024-01-30T06:30:17;11.05;;;6.20;;
64712;SDS011;51140;45.340;5.980;2024-01-30T06:32:43;10.93;;;6.15;;
64712;SDS011;51140;45.340;5.980;2024-01-30T06:35:08;13.10;;;5.75;;
64712;SDS011;51140;45.340;5.980;2024-01-30T06:37:35;14.65;;;6.22;;
64712;SDS011;51140;45.340;5.980;2024-01-30T06:40:00;12.93;;;5.57;;
64712;SDS011;51140;45.340;5.980;2024-01-30T06:42:26;10.98;;;5.38;;
64712;SDS011;51140;45.340;5.980;2024-01-30T06:44:51;10.73;;;5.05;;
64712;SDS011;51140;45.340;5.980;2024-01-30T06:47:17;9.48;;;5.00;;
64712;SDS011;51140;45.340;5.980;2024-01-30T06:49:42;10.90;;;5.60;;
64712;SDS011;51140;45.340;5.980;2024-01-30T06:52:08;12.73;;;5.75;;
64712;SDS011;51140;45.340;5.980;2024-01-30T06:54:34;9.85;;;5.43;;
64712;SDS011;51140;45.340;5.980;2024-01-30T06:56:59;13.18;;;6.60;;
64712;SDS011;51140;45.340;5.980;2024-01-30T06:59:25;10.43;;;6.18;;
64712;SDS011;51140;45.340;5.980;2024-01-30T07:01:50;10.73;;;5.70;;
64712;SDS011;51140;45.340;5.980;2024-01-30T07:04:16;11.35;;;5.18;;
64712;SDS011;51140;45.340;5.980;2024-01-30T07:06:43;12.35;;;5.13;;
64712;SDS011;51140;45.340;5.980;2024-01-30T07:09:08;9.20;;;4.97;;
64712;SDS011;51140;45.340;5.980;2024-01-30T07:11:34;13.18;;;5.22;;
64712;SDS011;51140;45.340;5.980;2024-01-30T07:13:59;11.05;;;4.97;;
64712;SDS011;51140;45.340;5.980;2024-01-30T07:16:24;8.70;;;4.55;;
64712;SDS011;51140;45.340;5.980;2024-01-30T07:18:50;8.43;;;4.00;;
64712;SDS011;51140;45.340;5.980;2024-01-30T07:21:15;9.10;;;4.22;;
64712;SDS011;51140;45.340;5.980;2024-01-30T07:23:40;9.63;;;4.88;;
64712;SDS011;51140;45.340;5.980;2024-01-30T07:26:07;12.75;;;6.85;;
64712;SDS011;51140;45.340;5.980;2024-01-30T07:28:33;12.85;;;6.28;;
64712;SDS011;51140;45.340;5.980;2024-01-30T07:30:59;9.82;;;5.43;;
64712;SDS011;51140;45.340;5.980;2024-01-30T07:33:25;9.25;;;4.80;;
64712;SDS011;51140;45.340;5.980;2024-01-30T07:35:52;10.70;;;5.30;;
64712;SDS011;51140;45.340;5.980;2024-01-30T07:38:18;10.88;;;5.55;;
64712;SDS011;51140;45.340;5.980;2024-01-30T07:40:43;13.13;;;6.63;;
64712;SDS011;51140;45.340;5.980;2024-01-30T07:43:09;14.40;;;6.40;;
64712;SDS011;51140;45.340;5.980;2024-01-30T07:45:35;10.23;;;5.43;;
64712;SDS011;51140;45.340;5.980;2024-01-30T07:48:00;9.55;;;4.80;;
64712;SDS011;51140;45.340;5.980;2024-01-30T07:50:26;11.00;;;5.18;;
64712;SDS011;51140;45.340;5.980;2024-01-30T07:52:52;11.40;;;5.13;;
64712;SDS011;51140;45.340;5.980;2024-01-30T07:55:20;9.75;;;4.82;;
64712;SDS011;51140;45.340;5.980;2024-01-30T07:57:49;11.55;;;5.45;;
64712;SDS011;51140;45.340;5.980;2024-01-30T08:00:17;12.32;;;6.05;;
64712;SDS011;51140;45.340;5.980;2024-01-30T08:02:43;10.93;;;6.25;;
64712;SDS011;51140;45.340;5.980;2024-01-30T08:05:08;11.40;;;5.68;;
64712;SDS011;51140;45.340;5.980;2024-01-30T08:07:36;11.02;;;5.20;;
64712;SDS011;51140;45.340;5.980;2024-01-30T08:10:01;12.43;;;5.28;;
64712;SDS011;51140;45.340;5.980;2024-01-30T08:12:27;15.95;;;6.47;;
64712;SDS011;51140;45.340;5.980;2024-01-30T08:14:52;11.65;;;7.07;;
64712;SDS011;51140;45.340;5.980;2024-01-30T08:17:18;16.73;;;7.05;;
64712;SDS011;51140;45.340;5.980;2024-01-30T08:19:43;14.82;;;7.63;;
64712;SDS011;51140;45.340;5.980;2024-01-30T08:22:08;14.45;;;7.43;;
64712;SDS011;51140;45.340;5.980;2024-01-30T08:24:34;12.50;;;7.13;;
64712;SDS011;51140;45.340;5.980;2024-01-30T08:26:59;13.40;;;7.10;;
64712;SDS011;51140;45.340;5.980;2024-01-30T08:29:27;11.60;;;7.28;;
64712;SDS011;51140;45.340;5.980;2024-01-30T08:31:52;14.85;;;6.90;;
64712;SDS011;51140;45.340;5.980;2024-01-30T08:34:20;13.20;;;8.02;;
64712;SDS011;51140;45.340;5.980;2024-01-30T08:36:46;12.43;;;6.93;;
64712;SDS011;51140;45.340;5.980;2024-01-30T08:39:11;12.23;;;7.47;;
64712;SDS011;51140;45.340;5.980;2024-01-30T08:41:36;18.45;;;11.95;;
64712;SDS011;51140;45.340;5.980;2024-01-30T08:44:02;39.80;;;25.58;;
64712;SDS011;51140;45.340;5.980;2024-01-30T08:46:28;41.75;;;28.75;;
64712;SDS011;51140;45.340;5.980;2024-01-30T08:48:53;29.73;;;20.67;;
64712;SDS011;51140;45.340;5.980;2024-01-30T08:51:18;28.17;;;19.98;;
64712;SDS011;51140;45.340;5.980;2024-01-30T08:53:44;29.05;;;19.55;;
64712;SDS011;51140;45.340;5.980;2024-01-30T08:56:09;25.02;;;17.00;;
64712;SDS011;51140;45.340;5.980;2024-01-30T08:58:35;34.88;;;22.30;;
64712;SDS011;51140;45.340;5.980;2024-01-30T09:01:00;37.63;;;25.05;;
64712;SDS011;51140;45.340;5.980;2024-01-30T09:03:25;60.60;;;32.78;;
64712;SDS011;51140;45.340;5.980;2024-01-30T09:05:51;58.80;;;33.63;;
64712;SDS011;51140;45.340;5.980;2024-01-30T09:08:16;54.00;;;31.80;;
64712;SDS011;51140;45.340;5.980;2024-01-30T09:10:41;55.72;;;31.77;;
64712;SDS011;51140;45.340;5.980;2024-01-30T09:13:07;56.03;;;30.58;;
64712;SDS011;51140;45.340;5.980;2024-01-30T09:15:32;47.88;;;27.58;;
64712;SDS011;51140;45.340;5.980;2024-01-30T09:17:57;50.95;;;29.98;;
64712;SDS011;51140;45.340;5.980;2024-01-30T09:20:23;63.58;;;36.55;;
64712;SDS011;51140;45.340;5.980;2024-01-30T09:22:48;63.50;;;36.30;;
64712;SDS011;51140;45.340;5.980;2024-01-30T09:25:14;75.35;;;41.20;;
64712;SDS011;51140;45.340;5.980;2024-01-30T09:27:40;67.65;;;36.53;;
64712;SDS011;51140;45.340;5.980;2024-01-30T09:30:05;73.05;;;38.20;;
64712;SDS011;51140;45.340;5.980;2024-01-30T09:32:31;67.00;;;36.53;;
64712;SDS011;51140;45.340;5.980;2024-01-30T09:34:57;66.78;;;35.63;;
64712;SDS011;51140;45.340;5.980;2024-01-30T09:37:22;46.67;;;27.33;;
64712;SDS011;51140;45.340;5.980;2024-01-30T09:39:47;60.60;;;35.17;;
64712;SDS011;51140;45.340;5.980;2024-01-30T09:42:33;73.47;;;36.67;;
64712;SDS011;51140;45.340;5.980;2024-01-30T09:45:00;63.88;;;36.30;;
64712;SDS011;51140;45.340;5.980;2024-01-30T09:47:26;70.25;;;35.95;;
64712;SDS011;51140;45.340;5.980;2024-01-30T09:49:52;61.83;;;34.25;;
64712;SDS011;51140;45.340;5.980;2024-01-30T09:52:17;58.90;;;33.72;;
64712;SDS011;51140;45.340;5.980;2024-01-30T09:54:43;52.55;;;32.25;;
64712;SDS011;51140;45.340;5.980;2024-01-30T09:57:11;56.20;;;29.92;;
64712;SDS011;51140;45.340;5.980;2024-01-30T09:59:36;59.17;;;33.10;;
64712;SDS011;51140;45.340;5.980;2024-01-30T10:02:02;58.40;;;32.85;;
64712;SDS011;51140;45.340;5.980;2024-01-30T10:04:29;62.63;;;31.88;;
64712;SDS011;51140;45.340;5.980;2024-01-30T10:06:55;49.00;;;27.40;;
64712;SDS011;51140;45.340;5.980;2024-01-30T10:09:20;34.95;;;21.45;;
64712;SDS011;51140;45.340;5.980;2024-01-30T10:11:46;32.80;;;21.08;;
64712;SDS011;51140;45.340;5.980;2024-01-30T10:14:12;31.20;;;20.50;;
64712;SDS011;51140;45.340;5.980;2024-01-30T10:16:37;36.60;;;21.33;;
64712;SDS011;51140;45.340;5.980;2024-01-30T10:19:03;28.92;;;18.42;;
64712;SDS011;51140;45.340;5.980;2024-01-30T10:21:29;31.10;;;19.45;;
64712;SDS011;51140;45.340;5.980;2024-01-30T10:23:55;29.60;;;16.95;;
64712;SDS011;51140;45.340;5.980;2024-01-30T10:26:20;26.90;;;14.82;;
64712;SDS011;51140;45.340;5.980;2024-01-30T10:28:46;24.77;;;15.25;;
64712;SDS011;51140;45.340;5.980;2024-01-30T10:31:15;24.13;;;14.35;;
64712;SDS011;51140;45.340;5.980;2024-01-30T10:33:41;21.02;;;11.95;;
64712;SDS011;51140;45.340;5.980;2024-01-30T10:36:08;20.70;;;13.27;;
64712;SDS011;51140;45.340;5.980;2024-01-30T10:38:35;24.40;;;13.65;;
64712;SDS011;51140;45.340;5.980;2024-01-30T10:41:02;23.90;;;12.85;;
64712;SDS011;51140;45.340;5.980;2024-01-30T10:43:34;27.55;;;15.30;;
64712;SDS011;51140;45.340;5.980;2024-01-30T10:46:07;24.10;;;14.55;;
64712;SDS011;51140;45.340;5.980;2024-01-30T10:48:43;25.52;;;15.10;;
64712;SDS011;51140;45.340;5.980;2024-01-30T10:51:12;23.00;;;13.98;;
64712;SDS011;51140;45.340;5.980;2024-01-30T10:53:39;24.90;;;14.60;;
64712;SDS011;51140;45.340;5.980;2024-01-30T10:56:05;24.55;;;14.07;;
64712;SDS011;51140;45.340;5.980;2024-01-30T10:58:31;25.92;;;14.43;;
64712;SDS011;51140;45.340;5.980;2024-01-30T11:00:56;20.73;;;11.85;;
64712;SDS011;51140;45.340;5.980;2024-01-30T11:03:24;20.55;;;12.77;;
64712;SDS011;51140;45.340;5.980;2024-01-30T11:05:50;21.40;;;12.15;;
64712;SDS011;51140;45.340;5.980;2024-01-30T11:08:24;23.83;;;13.18;;
64712;SDS011;51140;45.340;5.980;2024-01-30T11:10:55;22.23;;;13.05;;
64712;SDS011;51140;45.340;5.980;2024-01-30T11:13:22;21.45;;;13.38;;
64712;SDS011;51140;45.340;5.980;2024-01-30T11:15:47;24.92;;;14.40;;
64712;SDS011;51140;45.340;5.980;2024-01-30T11:18:22;22.80;;;13.05;;
64712;SDS011;51140;45.340;5.980;2024-01-30T11:20:48;44.22;;;19.67;;
64712;SDS011;51140;45.340;5.980;2024-01-30T11:23:14;33.08;;;17.10;;
64712;SDS011;51140;45.340;5.980;2024-01-30T11:25:39;24.55;;;13.43;;
64712;SDS011;51140;45.340;5.980;2024-01-30T11:28:04;23.25;;;13.85;;
64712;SDS011;51140;45.340;5.980;2024-01-30T11:30:30;26.65;;;13.73;;
64712;SDS011;51140;45.340;5.980;2024-01-30T11:33:06;21.20;;;11.45;;
64712;SDS011;51140;45.340;5.980;2024-01-30T11:35:38;19.30;;;11.30;;
64712;SDS011;51140;45.340;5.980;2024-01-30T11:38:05;35.67;;;16.88;;
64712;SDS011;51140;45.340;5.980;2024-01-30T11:40:31;24.73;;;13.77;;
64712;SDS011;51140;45.340;5.980;2024-01-30T11:42:59;30.15;;;16.67;;
64712;SDS011;51140;45.340;5.980;2024-01-30T11:45:26;24.02;;;13.50;;
64712;SDS011;51140;45.340;5.980;2024-01-30T11:47:52;24.10;;;14.02;;
64712;SDS011;51140;45.340;5.980;2024-01-30T11:50:18;25.08;;;14.20;;
64712;SDS011;51140;45.340;5.980;2024-01-30T11:52:43;26.85;;;13.70;;
64712;SDS011;51140;45.340;5.980;2024-01-30T11:55:09;27.10;;;13.60;;
64712;SDS011;51140;45.340;5.980;2024-01-30T11:57:35;23.27;;;14.38;;
64712;SDS011;51140;45.340;5.980;2024-01-30T12:00:02;25.27;;;15.48;;
64712;SDS011;51140;45.340;5.980;2024-01-30T12:02:33;23.50;;;15.23;;
64712;SDS011;51140;45.340;5.980;2024-01-30T12:05:01;24.30;;;14.57;;
64712;SDS011;51140;45.340;5.980;2024-01-30T12:07:29;27.13;;;14.52;;
64712;SDS011;51140;45.340;5.980;2024-01-30T12:09:55;22.58;;;11.65;;
64712;SDS011;51140;45.340;5.980;2024-01-30T12:12:24;20.25;;;11.65;;
64712;SDS011;51140;45.340;5.980;2024-01-30T12:14:51;20.05;;;11.70;;
64712;SDS011;51140;45.340;5.980;2024-01-30T12:17:29;18.27;;;11.63;;
64712;SDS011;51140;45.340;5.980;2024-01-30T12:20:06;22.63;;;12.25;;
64712;SDS011;51140;45.340;5.980;2024-01-30T12:22:42;21.67;;;11.82;;
64712;SDS011;51140;45.340;5.980;2024-01-30T12:25:09;22.23;;;13.30;;
64712;SDS011;51140;45.340;5.980;2024-01-30T12:27:36;19.63;;;12.52;;
64712;SDS011;51140;45.340;5.980;2024-01-30T12:30:05;22.38;;;12.63;;
64712;SDS011;51140;45.340;5.980;2024-01-30T12:32:31;24.38;;;12.75;;
64712;SDS011;51140;45.340;5.980;2024-01-30T12:34:56;22.75;;;12.25;;
64712;SDS011;51140;45.340;5.980;2024-01-30T12:37:22;24.98;;;11.70;;
64712;SDS011;51140;45.340;5.980;2024-01-30T12:39:49;23.45;;;12.75;;
64712;SDS011;51140;45.340;5.980;2024-01-30T12:42:16;23.30;;;12.10;;
64712;SDS011;51140;45.340;5.980;2024-01-30T12:44:41;18.85;;;11.40;;
64712;SDS011;51140;45.340;5.980;2024-01-30T12:47:08;19.38;;;11.93;;
64712;SDS011;51140;45.340;5.980;2024-01-30T12:49:35;23.80;;;12.90;;
64712;SDS011;51140;45.340;5.980;2024-01-30T12:52:00;24.50;;;13.15;;
64712;SDS011;51140;45.340;5.980;2024-01-30T12:54:25;21.77;;;12.52;;
64712;SDS011;51140;45.340;5.980;2024-01-30T12:56:51;21.60;;;12.77;;
64712;SDS011;51140;45.340;5.980;2024-01-30T12:59:16;20.20;;;12.10;;
64712;SDS011;51140;45.340;5.980;2024-01-30T13:01:42;18.30;;;11.05;;
64712;SDS011;51140;45.340;5.980;2024-01-30T13:04:08;21.13;;;12.32;;
64712;SDS011;51140;45.340;5.980;2024-01-30T13:06:33;20.80;;;12.23;;
64712;SDS011;51140;45.340;5.980;2024-01-30T13:08:58;19.42;;;11.55;;
64712;SDS011;51140;45.340;5.980;2024-01-30T13:11:24;18.10;;;11.50;;
64712;SDS011;51140;45.340;5.980;2024-01-30T13:13:50;20.08;;;10.95;;
64712;SDS011;51140;45.340;5.980;2024-01-30T13:16:16;20.77;;;11.88;;
64712;SDS011;51140;45.340;5.980;2024-01-30T13:18:43;19.73;;;11.30;;
64712;SDS011;51140;45.340;5.980;2024-01-30T13:21:08;17.77;;;10.40;;
64712;SDS011;51140;45.340;5.980;2024-01-30T13:23:34;16.65;;;9.98;;
64712;SDS011;51140;45.340;5.980;2024-01-30T13:25:59;21.08;;;10.90;;
64712;SDS011;51140;45.340;5.980;2024-01-30T13:28:25;18.42;;;11.13;;
64712;SDS011;51140;45.340;5.980;2024-01-30T13:30:50;18.80;;;10.10;;
64712;SDS011;51140;45.340;5.980;2024-01-30T13:33:16;20.38;;;10.55;;
64712;SDS011;51140;45.340;5.980;2024-01-30T13:35:41;16.77;;;10.48;;
64712;SDS011;51140;45.340;5.980;2024-01-30T13:38:07;20.73;;;10.55;;
64712;SDS011;51140;45.340;5.980;2024-01-30T13:40:33;19.55;;;10.73;;
64712;SDS011;51140;45.340;5.980;2024-01-30T13:42:58;19.27;;;10.05;;
64712;SDS011;51140;45.340;5.980;2024-01-30T13:45:24;17.33;;;9.95;;
64712;SDS011;51140;45.340;5.980;2024-01-30T13:47:49;19.08;;;9.90;;
64712;SDS011;51140;45.340;5.980;2024-01-30T13:50:14;16.83;;;9.63;;
64712;SDS011;51140;45.340;5.980;2024-01-30T13:52:41;19.55;;;10.57;;
64712;SDS011;51140;45.340;5.980;2024-01-30T13:55:08;17.83;;;9.93;;
64712;SDS011;51140;45.340;5.980;2024-01-30T13:57:33;16.65;;;9.68;;
64712;SDS011;51140;45.340;5.980;2024-01-30T14:00:01;17.45;;;9.40;;
64712;SDS011;51140;45.340;5.980;2024-01-30T14:02:30;17.02;;;9.75;;
64712;SDS011;51140;45.340;5.980;2024-01-30T14:04:55;18.40;;;9.85;;
64712;SDS011;51140;45.340;5.980;2024-01-30T14:07:21;16.92;;;9.68;;
64712;SDS011;51140;45.340;5.980;2024-01-30T14:09:47;14.68;;;8.88;;
64712;SDS011;51140;45.340;5.980;2024-01-30T14:12:13;17.90;;;9.63;;
64712;SDS011;51140;45.340;5.980;2024-01-30T14:14:38;17.00;;;9.20;;
64712;SDS011;51140;45.340;5.980;2024-01-30T14:17:03;16.85;;;10.02;;
64712;SDS011;51140;45.340;5.980;2024-01-30T14:19:32;19.23;;;9.85;;
64712;SDS011;51140;45.340;5.980;2024-01-30T14:21:57;18.35;;;9.48;;
64712;SDS011;51140;45.340;5.980;2024-01-30T14:24:23;17.40;;;9.30;;